Time;durP1;ratioP1;P1;durP2;ratioP2;P2;SDS_P1;SDS_P2;PMS_P1;PMS_P2;Temp;Humidity;BMP_temperature;BMP_pressure;BME280_temperature;BME280_humidity;BME280_pressure;Samples;Min_cycle;Max_cycle;Signal;HPM_P1;HPM_P2
2021/07/25 00:00:32;;;;;;;;;;;;;;;;;;5094090;28;1270;-82
2021/07/25 00:03:06;;;;;;;;;;;;;;;;;;5106641;28;970;-83
2021/07/25 00:08:24;;;;;;;;;;;;;;;;;;5036626;28;1055;-83
2021/07/25 00:11:01;;;;;;;;;;;;;;;;;;5019918;28;1977;-83
2021/07/25 00:13:27;;;;;;;;;;;;;;;;;;5019830;28;1288;-83
2021/07/25 00:15:54;;;;;;;;;;;;;;;;;;5019702;28;1293;-83
2021/07/25 00:18:21;;;;;;;;;;;;;;;;;;5019933;28;1229;-83
2021/07/25 00:20:48;;;;;;;;;;;;;;;;;;5019890;28;1160;-83
2021/07/25 00:23:18;;;;;;;;;;;;;;;;;;5019663;28;1192;-83
2021/07/25 00:25:46;;;;;;;;;;;;;;;;;;5019591;28;1358;-83
2021/07/25 00:28:17;;;;;;;;;;;;;;;;;;5019693;28;1253;-83
2021/07/25 00:30:43;;;;;;;;;;;;;;;;;;5019064;28;1883;-83
2021/07/25 00:33:09;;;;;;;;;;;;;;;;;;5035561;28;1072;-83
2021/07/25 00:35:36;;;;;;;;;;;;;;;;;;5019451;28;1195;-83
2021/07/25 00:38:03;;;;;;;;;;;;;;;;;;5019481;28;1308;-83
2021/07/25 00:40:29;;;;;;;;;;;;;;;;;;5019475;28;1301;-82
2021/07/25 00:42:56;;;;;;;;;;;;;;;;;;5019556;28;1172;-83
2021/07/25 00:45:29;;;;;;;;;;;;;;;;;;5057216;28;1150;-83
2021/07/25 00:50:50;;;;;;;;;;;;;;;;;;5098069;28;1882;-83
2021/07/25 00:53:15;;;;;;;;;;;;;;;;;;5097021;28;1183;-83
2021/07/25 00:55:41;;;;;;;;;;;;;;;;;;5096763;28;1266;-83
2021/07/25 00:58:07;;;;;;;;;;;;;;;;;;5096649;28;1223;-83
2021/07/25 01:00:45;;;;;;;;;;;;;;;;;;5096629;28;1160;-84
2021/07/25 01:03:21;;;;;;;;;;;;;;;;;;5096575;28;1340;-83
2021/07/25 01:05:47;;;;;;;;;;;;;;;;;;5096556;28;1171;-83
2021/07/25 01:08:19;;;;;;;;;;;;;;;;;;5096471;28;1206;-83
2021/07/25 01:10:54;;;;;;;;;;;;;;;;;;5097572;28;1953;-83
2021/07/25 01:13:31;;;;;;;;;;;;;;;;;;5097523;28;873;-83
2021/07/25 01:15:56;;;;;;;;;;;;;;;;;;5095491;28;1210;-83
2021/07/25 01:18:22;;;;;;;;;;;;;;;;;;5097471;28;931;-83
2021/07/25 01:20:48;;;;;;;;;;;;;;;;;;5096269;28;1130;-83
2021/07/25 01:23:23;;;;;;;;;;;;;;;;;;5096180;28;1178;-83
2021/07/25 01:25:50;;;;;;;;;;;;;;;;;;5096096;28;1379;-83
2021/07/25 01:28:32;;;;;;;;;;;;;;;;;;5097328;28;952;-83
2021/07/25 01:31:14;;;;;;;;;;;;;;;;;;5097173;28;1878;-83
2021/07/25 01:33:53;;;;;;;;;;;;;;;;;;5096055;28;1237;-83
2021/07/25 01:39:30;;;;;;;;;;;;;;;;;;5034818;28;946;-83
2021/07/25 01:41:56;;;;;;;;;;;;;;;;;;5018228;28;1298;-83
2021/07/25 01:44:24;;;;;;;;;;;;;;;;;;5034842;28;926;-83
2021/07/25 01:46:58;;;;;;;;;;;;;;;;;;5018309;28;1140;-84
2021/07/25 01:49:24;;;;;;;;;;;;;;;;;;5018111;28;1149;-83
2021/07/25 01:51:49;;;;;;;;;;;;;;;;;;5027494;28;1937;-83
2021/07/25 01:54:14;;;;;;;;;;;;;;;;;;5018178;28;1182;-83
2021/07/25 01:56:56;;;;;;;;;;;;;;;;;;5034482;28;994;-83
2021/07/25 01:59:22;;;;;;;;;;;;;;;;;;5018072;28;1207;-83
2021/07/25 02:01:48;;;;;;;;;;;;;;;;;;5034358;28;1252;-81
2021/07/25 02:04:14;;;;;;;;;;;;;;;;;;5017811;28;1307;-81
2021/07/25 02:06:50;;;;;;;;;;;;;;;;;;5017702;28;1289;-80
2021/07/25 02:12:26;;;;;;;;;;;;;;;;;;5014381;28;1910;-80
2021/07/25 02:14:52;;;;;;;;;;;;;;;;;;5025400;28;1008;-81
2021/07/25 02:17:19;;;;;;;;;;;;;;;;;;5057329;28;1152;-81
2021/07/25 02:19:45;;;;;;;;;;;;;;;;;;5057327;28;1230;-81
2021/07/25 02:22:12;;;;;;;;;;;;;;;;;;5057352;28;1260;-81
2021/07/25 02:24:40;;;;;;;;;;;;;;;;;;5057082;28;1262;-81
2021/07/25 02:27:06;;;;;;;;;;;;;;;;;;5056817;28;1363;-80
2021/07/25 02:29:32;;;;;;;;;;;;;;;;;;5057132;28;1187;-81
2021/07/25 02:32:14;;;;;;;;;;;;;;;;;;5073555;28;1882;-81
2021/07/25 02:34:41;;;;;;;;;;;;;;;;;;5056836;28;1333;-80
2021/07/25 02:37:11;;;;;;;;;;;;;;;;;;5055870;28;1227;-80
2021/07/25 02:39:37;;;;;;;;;;;;;;;;;;5072580;28;977;-81
2021/07/25 02:42:03;;;;;;;;;;;;;;;;;;5056585;28;1319;-81
2021/07/25 02:44:29;;;;;;;;;;;;;;;;;;5056931;28;1236;-81
2021/07/25 02:47:01;;;;;;;;;;;;;;;;;;5086042;28;1299;-81
2021/07/25 02:49:33;;;;;;;;;;;;;;;;;;5094657;28;1373;-81
2021/07/25 02:52:04;;;;;;;;;;;;;;;;;;5091665;28;1885;-82
2021/07/25 02:54:29;;;;;;;;;;;;;;;;;;5053646;28;1186;-82
2021/07/25 02:56:54;;;;;;;;;;;;;;;;;;5054567;28;997;-82
2021/07/25 03:02:15;;;;;;;;;;;;;;;;;;5033543;28;986;-81
2021/07/25 03:04:41;;;;;;;;;;;;;;;;;;5017089;28;1156;-81
2021/07/25 03:07:08;;;;;;;;;;;;;;;;;;5033556;28;1000;-81
2021/07/25 03:09:34;;;;;;;;;;;;;;;;;;5016976;28;1206;-81
2021/07/25 03:12:18;;;;;;;;;;;;;;;;;;5016958;28;1906;-82
2021/07/25 03:14:45;;;;;;;;;;;;;;;;;;5033506;28;898;-81
2021/07/25 03:17:11;;;;;;;;;;;;;;;;;;5033404;28;846;-81
2021/07/25 03:19:38;;;;;;;;;;;;;;;;;;5033411;28;997;-81
2021/07/25 03:24:47;;;;;;;;;;;;;;;;;;5033189;28;1025;-82
2021/07/25 03:27:13;;;;;;;;;;;;;;;;;;5016751;28;1346;-81
2021/07/25 03:29:40;;;;;;;;;;;;;;;;;;5016861;28;1336;-82
2021/07/25 03:32:18;;;;;;;;;;;;;;;;;;5016573;28;1957;-81
2021/07/25 03:34:44;;;;;;;;;;;;;;;;;;5033347;28;866;-82
2021/07/25 03:37:10;;;;;;;;;;;;;;;;;;5016804;28;1247;-82
2021/07/25 03:42:15;;;;;;;;;;;;;;;;;;5059528;28;795;-81
2021/07/25 03:44:46;;;;;;;;;;;;;;;;;;5058870;28;913;-81
2021/07/25 03:47:12;;;;;;;;;;;;;;;;;;5058835;28;889;-81
2021/07/25 03:49:43;;;;;;;;;;;;;;;;;;5057474;28;1159;-82
2021/07/25 03:52:09;;;;;;;;;;;;;;;;;;5057876;28;1969;-81
2021/07/25 03:54:34;;;;;;;;;;;;;;;;;;5097710;28;1274;-82
2021/07/25 03:59:29;;;;;;;;;;;;;;;;;;5097961;28;894;-81
2021/07/25 04:02:01;;;;;;;;;;;;;;;;;;5097494;28;1298;-82
2021/07/25 04:04:34;;;;;;;;;;;;;;;;;;5097649;28;1279;-82
2021/07/25 04:10:02;;;;;;;;;;;;;;;;;;5056419;28;663;-82
2021/07/25 04:12:39;;;;;;;;;;;;;;;;;;5056303;28;1902;-82
2021/07/25 04:15:05;;;;;;;;;;;;;;;;;;5056355;28;927;-82
2021/07/25 04:17:34;;;;;;;;;;;;;;;;;;5039459;28;1332;-82
2021/07/25 04:20:00;;;;;;;;;;;;;;;;;;5056333;28;920;-81
2021/07/25 04:22:26;;;;;;;;;;;;;;;;;;5039424;28;1278;-82
2021/07/25 04:24:52;;;;;;;;;;;;;;;;;;5039300;28;1153;-82
2021/07/25 04:27:19;;;;;;;;;;;;;;;;;;5039340;28;1256;-82
2021/07/25 04:29:46;;;;;;;;;;;;;;;;;;5039290;28;1176;-82
2021/07/25 04:32:13;;;;;;;;;;;;;;;;;;5039220;28;1867;-82
2021/07/25 04:37:31;;;;;;;;;;;;;;;;;;5056058;28;967;-82
2021/07/25 04:39:57;;;;;;;;;;;;;;;;;;5039186;28;1474;-82
2021/07/25 04:42:22;;;;;;;;;;;;;;;;;;5039096;28;1294;-82
2021/07/25 04:44:47;;;;;;;;;;;;;;;;;;5087711;28;1232;-82
2021/07/25 04:47:19;;;;;;;;;;;;;;;;;;5096799;28;1208;-81
2021/07/25 04:49:45;;;;;;;;;;;;;;;;;;5096446;28;961;-82
2021/07/25 04:52:11;;;;;;;;;;;;;;;;;;5096714;28;1940;-82
2021/07/25 04:54:36;;;;;;;;;;;;;;;;;;5096695;28;1243;-82
2021/07/25 04:57:12;;;;;;;;;;;;;;;;;;5096555;28;1298;-82
2021/07/25 04:59:49;;;;;;;;;;;;;;;;;;5096451;28;1292;-82
2021/07/25 05:02:31;;;;;;;;;;;;;;;;;;5096560;28;1200;-82
2021/07/25 05:04:56;;;;;;;;;;;;;;;;;;5096467;28;1179;-82
2021/07/25 05:07:24;;;;;;;;;;;;;;;;;;5097632;28;914;-82
2021/07/25 05:09:55;;;;;;;;;;;;;;;;;;5096274;28;1206;-82
2021/07/25 05:15:04;;;;;;;;;;;;;;;;;;5097529;28;601;-82
2021/07/25 05:17:39;;;;;;;;;;;;;;;;;;5096559;28;1159;-82
2021/07/25 05:23:10;;;;;;;;;;;;;;;;;;5035182;28;739;-83
2021/07/25 05:25:43;;;;;;;;;;;;;;;;;;5018350;28;1313;-82
2021/07/25 05:28:10;;;;;;;;;;;;;;;;;;5018405;28;1375;-82
2021/07/25 05:30:39;;;;;;;;;;;;;;;;;;5018468;28;1258;-83
2021/07/25 05:33:07;;;;;;;;;;;;;;;;;;5018381;28;1875;-82
2021/07/25 05:35:33;;;;;;;;;;;;;;;;;;5017863;28;1338;-82
2021/07/25 05:41:05;;;;;;;;;;;;;;;;;;4995616;28;902;-82
2021/07/25 05:43:31;;;;;;;;;;;;;;;;;;4979150;28;1323;-83
2021/07/25 05:45:57;;;;;;;;;;;;;;;;;;4979253;28;1181;-81
2021/07/25 05:48:22;;;;;;;;;;;;;;;;;;4979048;28;1281;-82
2021/07/25 05:50:50;;;;;;;;;;;;;;;;;;4995259;28;1878;-82
2021/07/25 05:53:15;;;;;;;;;;;;;;;;;;4992161;28;1204;-82
2021/07/25 05:55:41;;;;;;;;;;;;;;;;;;5036769;28;1176;-82
2021/07/25 05:58:08;;;;;;;;;;;;;;;;;;5037255;28;1190;-82
2021/07/25 06:03:37;;;;;;;;;;;;;;;;;;5014544;28;928;-82
2021/07/25 06:06:11;;;;;;;;;;;;;;;;;;5014703;28;889;-82
2021/07/25 06:08:37;;;;;;;;;;;;;;;;;;4998062;28;1299;-82
2021/07/25 06:11:03;;;;;;;;;;;;;;;;;;4997907;28;1910;-82
2021/07/25 06:13:29;;;;;;;;;;;;;;;;;;5014466;28;947;-82
2021/07/25 06:15:56;;;;;;;;;;;;;;;;;;4998003;28;1235;-82
2021/07/25 06:18:30;;;;;;;;;;;;;;;;;;5016538;28;1306;-82
2021/07/25 06:20:57;;;;;;;;;;;;;;;;;;5017714;28;1197;-82
2021/07/25 06:23:23;;;;;;;;;;;;;;;;;;5017358;28;1192;-82
2021/07/25 06:25:49;;;;;;;;;;;;;;;;;;5017630;28;1421;-82
2021/07/25 06:28:15;;;;;;;;;;;;;;;;;;5033903;28;957;-82
2021/07/25 06:30:41;;;;;;;;;;;;;;;;;;5017454;28;1156;-81
2021/07/25 06:33:07;;;;;;;;;;;;;;;;;;5017256;28;1875;-82
2021/07/25 06:35:34;;;;;;;;;;;;;;;;;;5033969;28;937;-82
2021/07/25 06:38:00;;;;;;;;;;;;;;;;;;5017303;28;1251;-82
2021/07/25 06:40:35;;;;;;;;;;;;;;;;;;5080133;28;960;-82
2021/07/25 06:43:03;;;;;;;;;;;;;;;;;;5094742;28;1310;-82
2021/07/25 06:45:29;;;;;;;;;;;;;;;;;;5095962;28;900;-83
2021/07/25 06:48:07;;;;;;;;;;;;;;;;;;5094626;28;1171;-82
2021/07/25 06:50:32;;;;;;;;;;;;;;;;;;5094594;28;1262;-82
2021/07/25 06:53:00;;;;;;;;;;;;;;;;;;5089619;28;1882;-80
2021/07/25 06:55:25;;;;;;;;;;;;;;;;;;5095851;28;889;-82
2021/07/25 07:03:46;;;;;;;;;;;;;;;;;;4994280;28;806;-82
2021/07/25 07:06:13;;;;;;;;;;;;;;;;;;4994130;28;946;-80
2021/07/25 07:11:22;;;;;;;;;;;;;;;;;;4994164;28;1973;-80
2021/07/25 07:13:51;;;;;;;;;;;;;;;;;;4979883;28;1253;-80
2021/07/25 07:16:32;;;;;;;;;;;;;;;;;;4998039;28;842;-79
2021/07/25 07:18:59;;;;;;;;;;;;;;;;;;4998069;28;916;-79
2021/07/25 07:21:36;;;;;;;;;;;;;;;;;;4981721;28;1111;-79
2021/07/25 07:24:01;;;;;;;;;;;;;;;;;;4997735;28;1069;-79
2021/07/25 07:26:27;;;;;;;;;;;;;;;;;;4981486;28;1231;-79
2021/07/25 07:34:48;;;;;;;;;;;;;;;;;;4959025;29;803;-79
2021/07/25 07:37:35;;;;;;;;;;;;;;;;;;4982545;28;1094;-79
2021/07/25 07:40:02;;;;;;;;;;;;;;;;;;5037174;28;940;-79
2021/07/25 07:42:28;;;;;;;;;;;;;;;;;;5020442;28;1225;-80
2021/07/25 07:44:53;;;;;;;;;;;;;;;;;;5020504;28;1209;-80
2021/07/25 07:47:29;;;;;;;;;;;;;;;;;;5020361;28;1260;-79
2021/07/25 07:49:54;;;;;;;;;;;;;;;;;;5020228;28;1196;-79
2021/07/25 07:52:28;;;;;;;;;;;;;;;;;;5020043;28;1949;-79
2021/07/25 07:54:53;;;;;;;;;;;;;;;;;;5020109;28;1357;-79
2021/07/25 07:57:18;;;;;;;;;;;;;;;;;;5020197;28;1328;-79
2021/07/25 08:02:30;;;;;;;;;;;;;;;;;;5036759;28;1367;-79
2021/07/25 08:04:57;;;;;;;;;;;;;;;;;;5055069;28;1043;-80
2021/07/25 08:07:22;;;;;;;;;;;;;;;;;;5097640;28;1175;-80
2021/07/25 08:09:48;;;;;;;;;;;;;;;;;;5098763;28;818;-79
2021/07/25 08:12:21;;;;;;;;;;;;;;;;;;5097445;28;1906;-79
2021/07/25 08:14:47;;;;;;;;;;;;;;;;;;5098782;28;865;-79
2021/07/25 08:17:20;;;;;;;;;;;;;;;;;;5098677;28;924;-80
2021/07/25 08:19:55;;;;;;;;;;;;;;;;;;5097393;28;1238;-80
2021/07/25 08:22:40;;;;;;;;;;;;;;;;;;5097938;28;1242;-79
2021/07/25 08:25:13;;;;;;;;;;;;;;;;;;5096923;28;1294;-80
2021/07/25 08:27:49;;;;;;;;;;;;;;;;;;5096742;28;1171;-80
2021/07/25 08:30:21;;;;;;;;;;;;;;;;;;5096771;28;1266;-80
2021/07/25 08:33:05;;;;;;;;;;;;;;;;;;5097015;28;1941;-80
2021/07/25 08:35:46;;;;;;;;;;;;;;;;;;5098425;28;873;-79
2021/07/25 08:38:30;;;;;;;;;;;;;;;;;;5097087;28;1222;-79
2021/07/25 08:43:39;;;;;;;;;;;;;;;;;;5098251;28;672;-79
2021/07/25 08:46:12;;;;;;;;;;;;;;;;;;5096839;28;1281;-79
2021/07/25 08:51:21;;;;;;;;;;;;;;;;;;5098033;28;1894;-80
2021/07/25 08:54:00;;;;;;;;;;;;;;;;;;5089040;28;1298;-80
2021/07/25 08:56:25;;;;;;;;;;;;;;;;;;5096730;28;1211;-79
2021/07/25 08:58:52;;;;;;;;;;;;;;;;;;5097745;28;865;-80
2021/07/25 09:01:23;;;;;;;;;;;;;;;;;;5097072;28;1377;-80
2021/07/25 09:03:48;;;;;;;;;;;;;;;;;;5096515;28;1194;-79
2021/07/25 09:06:15;;;;;;;;;;;;;;;;;;5097681;28;1070;-82
2021/07/25 09:08:50;;;;;;;;;;;;;;;;;;5096192;28;1193;-82
2021/07/25 09:19:20;;;;;;;;;;;;;;;;;;5035115;28;1064;-79
2021/07/25 09:22:04;;;;;;;;;;;;;;;;;;5035370;28;1146;-80
2021/07/25 09:27:14;;;;;;;;;;;;;;;;;;5035280;28;652;-80
2021/07/25 09:29:49;;;;;;;;;;;;;;;;;;5034945;28;1048;-79
2021/07/25 09:32:16;;;;;;;;;;;;;;;;;;5018481;28;1957;-79
2021/07/25 09:34:54;;;;;;;;;;;;;;;;;;5018594;28;1155;-80
2021/07/25 09:40:03;;;;;;;;;;;;;;;;;;5034925;28;661;-78
2021/07/25 09:42:29;;;;;;;;;;;;;;;;;;5018071;28;1168;-79
2021/07/25 09:45:03;;;;;;;;;;;;;;;;;;5018129;28;1278;-80
2021/07/25 09:47:30;;;;;;;;;;;;;;;;;;5034637;28;917;-83
2021/07/25 09:49:56;;;;;;;;;;;;;;;;;;5018310;28;1196;-82
2021/07/25 09:52:22;;;;;;;;;;;;;;;;;;5034516;28;1946;-82
2021/07/25 09:54:47;;;;;;;;;;;;;;;;;;5017873;28;1167;-81
2021/07/25 09:57:24;;;;;;;;;;;;;;;;;;5094182;28;1009;-82
2021/07/25 09:59:51;;;;;;;;;;;;;;;;;;5095622;28;1330;-82
2021/07/25 10:02:16;;;;;;;;;;;;;;;;;;5096729;28;1223;-82
2021/07/25 10:04:43;;;;;;;;;;;;;;;;;;5095322;28;1306;-82
2021/07/25 10:07:17;;;;;;;;;;;;;;;;;;5095440;28;1179;-82
2021/07/25 10:09:51;;;;;;;;;;;;;;;;;;5095221;28;1290;-82
2021/07/25 10:12:32;;;;;;;;;;;;;;;;;;5095226;28;1951;-82
2021/07/25 10:20:38;;;;;;;;;;;;;;;;;;5034286;28;614;-82
2021/07/25 10:23:04;;;;;;;;;;;;;;;;;;5017737;28;1328;-82
2021/07/25 10:28:33;;;;;;;;;;;;;;;;;;5013935;28;1118;-82
2021/07/25 10:30:58;;;;;;;;;;;;;;;;;;4997820;28;1973;-83
2021/07/25 10:33:24;;;;;;;;;;;;;;;;;;5014109;28;1049;-82
2021/07/25 10:35:50;;;;;;;;;;;;;;;;;;5014289;28;918;-82
2021/07/25 10:38:17;;;;;;;;;;;;;;;;;;5014331;28;917;-82
2021/07/25 10:40:44;;;;;;;;;;;;;;;;;;5013995;28;1068;-82
2021/07/25 10:43:20;;;;;;;;;;;;;;;;;;5014176;28;981;-82
2021/07/25 10:45:47;;;;;;;;;;;;;;;;;;4997476;28;1359;-82
2021/07/25 10:48:14;;;;;;;;;;;;;;;;;;4997125;28;1317;-83
2021/07/25 10:50:41;;;;;;;;;;;;;;;;;;5014114;28;862;-82
2021/07/25 10:53:06;;;;;;;;;;;;;;;;;;5014412;28;1879;-82
2021/07/25 10:55:31;;;;;;;;;;;;;;;;;;5036706;28;1295;-82
2021/07/25 10:57:58;;;;;;;;;;;;;;;;;;5036790;28;1267;-81
2021/07/25 11:03:18;;;;;;;;;;;;;;;;;;5013872;28;1175;-83
2021/07/25 11:05:43;;;;;;;;;;;;;;;;;;5013692;28;1153;-82
2021/07/25 11:08:10;;;;;;;;;;;;;;;;;;5013821;28;1194;-81
2021/07/25 11:10:35;;;;;;;;;;;;;;;;;;5013761;28;1323;-81
2021/07/25 11:13:00;;;;;;;;;;;;;;;;;;5013769;28;1902;-82
2021/07/25 11:15:44;;;;;;;;;;;;;;;;;;5013874;28;1303;-82
2021/07/25 11:18:11;;;;;;;;;;;;;;;;;;5013831;28;885;-81
2021/07/25 11:20:37;;;;;;;;;;;;;;;;;;5013519;28;1254;-82
2021/07/25 11:23:04;;;;;;;;;;;;;;;;;;5013581;28;1278;-81
2021/07/25 11:25:35;;;;;;;;;;;;;;;;;;5013634;28;961;-82
2021/07/25 11:28:00;;;;;;;;;;;;;;;;;;5013546;28;1215;-82
2021/07/25 11:30:26;;;;;;;;;;;;;;;;;;5013677;28;1081;-82
2021/07/25 11:33:00;;;;;;;;;;;;;;;;;;5013398;28;1875;-82
2021/07/25 11:35:26;;;;;;;;;;;;;;;;;;5013669;28;902;-82
2021/07/25 11:37:52;;;;;;;;;;;;;;;;;;5013393;28;1161;-82
2021/07/25 11:40:19;;;;;;;;;;;;;;;;;;5050076;28;1177;-82
2021/07/25 11:45:45;;;;;;;;;;;;;;;;;;5013533;28;1087;-83
2021/07/25 11:48:16;;;;;;;;;;;;;;;;;;5013414;28;1070;-82
2021/07/25 11:50:43;;;;;;;;;;;;;;;;;;5013210;28;1334;-82
2021/07/25 11:55:52;;;;;;;;;;;;;;;;;;5013113;28;1043;-82
2021/07/25 11:58:29;;;;;;;;;;;;;;;;;;5013292;28;1167;-81
2021/07/25 12:00:54;;;;;;;;;;;;;;;;;;5016678;28;1315;-82
2021/07/25 12:03:20;;;;;;;;;;;;;;;;;;5016809;28;933;-82
2021/07/25 12:05:46;;;;;;;;;;;;;;;;;;5017009;28;1273;-82
2021/07/25 12:08:14;;;;;;;;;;;;;;;;;;5016650;28;1329;-82
2021/07/25 12:10:41;;;;;;;;;;;;;;;;;;5016648;28;1297;-82
2021/07/25 12:13:07;;;;;;;;;;;;;;;;;;5016531;28;1906;-82
2021/07/25 12:15:34;;;;;;;;;;;;;;;;;;5016593;28;1197;-82
2021/07/25 12:18:00;;;;;;;;;;;;;;;;;;5016327;28;1312;-82
2021/07/25 12:20:33;;;;;;;;;;;;;;;;;;5019445;28;1182;-82
2021/07/25 12:25:30;;;;;;;;;;;;;;;;;;5038540;28;917;-82
2021/07/25 12:30:25;;;;;;;;;;;;;;;;;;5038480;28;798;-82
2021/07/25 12:32:50;;;;;;;;;;;;;;;;;;5036778;28;1946;-82
2021/07/25 12:35:17;;;;;;;;;;;;;;;;;;5036874;28;1172;-82
2021/07/25 12:40:53;;;;;;;;;;;;;;;;;;5036108;28;933;-79
2021/07/25 12:43:20;;;;;;;;;;;;;;;;;;5036101;28;944;-80
2021/07/25 12:45:48;;;;;;;;;;;;;;;;;;5036103;28;978;-79
2021/07/25 12:48:15;;;;;;;;;;;;;;;;;;5035782;28;1421;-80
2021/07/25 12:53:38;;;;;;;;;;;;;;;;;;5015692;28;1223;-82
2021/07/25 12:56:04;;;;;;;;;;;;;;;;;;5015817;28;1212;-82
2021/07/25 12:58:32;;;;;;;;;;;;;;;;;;5019203;28;1259;-82
2021/07/25 13:06:08;;;;;;;;;;;;;;;;;;5055394;28;662;-82
2021/07/25 13:08:34;;;;;;;;;;;;;;;;;;5038523;28;1235;-83
2021/07/25 13:11:09;;;;;;;;;;;;;;;;;;5037848;28;1440;-83
2021/07/25 13:13:36;;;;;;;;;;;;;;;;;;5038650;28;1362;-83
2021/07/25 13:16:01;;;;;;;;;;;;;;;;;;5038550;28;1280;-82
2021/07/25 13:18:27;;;;;;;;;;;;;;;;;;5055467;28;895;-82
2021/07/25 13:20:54;;;;;;;;;;;;;;;;;;5038621;28;1148;-82
2021/07/25 13:23:20;;;;;;;;;;;;;;;;;;5055366;28;1076;-82
2021/07/25 13:25:48;;;;;;;;;;;;;;;;;;5038312;28;1179;-82
2021/07/25 13:28:13;;;;;;;;;;;;;;;;;;5055095;28;885;-82
2021/07/25 13:33:08;;;;;;;;;;;;;;;;;;5077184;28;1894;-82
2021/07/25 13:35:40;;;;;;;;;;;;;;;;;;5076970;28;932;-82
2021/07/25 13:38:07;;;;;;;;;;;;;;;;;;5076834;28;948;-82
2021/07/25 13:43:39;;;;;;;;;;;;;;;;;;5034811;28;1088;-82
2021/07/25 13:46:06;;;;;;;;;;;;;;;;;;5018388;28;1168;-82
2021/07/25 13:48:32;;;;;;;;;;;;;;;;;;5034777;28;975;-82
2021/07/25 13:50:58;;;;;;;;;;;;;;;;;;5018038;28;1268;-82
2021/07/25 13:53:27;;;;;;;;;;;;;;;;;;5034576;28;1874;-82
2021/07/25 13:55:52;;;;;;;;;;;;;;;;;;5017761;28;1285;-82
2021/07/25 13:58:19;;;;;;;;;;;;;;;;;;5018135;28;1153;-82
2021/07/25 14:00:55;;;;;;;;;;;;;;;;;;5034472;28;1208;-82
2021/07/25 14:03:21;;;;;;;;;;;;;;;;;;5017898;28;1189;-82
2021/07/25 14:05:57;;;;;;;;;;;;;;;;;;5017989;28;1284;-82
2021/07/25 14:08:23;;;;;;;;;;;;;;;;;;5018192;28;1255;-83
2021/07/25 14:10:49;;;;;;;;;;;;;;;;;;5017895;28;1327;-82
2021/07/25 14:13:35;;;;;;;;;;;;;;;;;;5034249;28;1906;-82
2021/07/25 14:16:23;;;;;;;;;;;;;;;;;;5034366;28;877;-82
2021/07/25 14:19:07;;;;;;;;;;;;;;;;;;5017833;28;1268;-82
2021/07/25 14:21:33;;;;;;;;;;;;;;;;;;5074501;28;1209;-82
2021/07/25 14:24:05;;;;;;;;;;;;;;;;;;5074972;28;1246;-82
2021/07/25 14:26:32;;;;;;;;;;;;;;;;;;5076091;28;901;-82
2021/07/25 14:31:27;;;;;;;;;;;;;;;;;;5076299;28;1941;-83
2021/07/25 14:34:07;;;;;;;;;;;;;;;;;;5075982;28;1059;-82
2021/07/25 14:36:34;;;;;;;;;;;;;;;;;;5075956;28;884;-83
2021/07/25 14:39:06;;;;;;;;;;;;;;;;;;5075050;28;1151;-82
2021/07/25 14:41:37;;;;;;;;;;;;;;;;;;5074604;28;1338;-83
2021/07/25 14:44:04;;;;;;;;;;;;;;;;;;5075938;28;876;-82
2021/07/25 14:46:31;;;;;;;;;;;;;;;;;;5073870;28;1385;-82
2021/07/25 14:48:57;;;;;;;;;;;;;;;;;;5075888;28;921;-82
2021/07/25 14:51:38;;;;;;;;;;;;;;;;;;5074578;28;1937;-82
2021/07/25 14:54:03;;;;;;;;;;;;;;;;;;5074675;28;1266;-82
2021/07/25 14:56:28;;;;;;;;;;;;;;;;;;5093270;28;1158;-82
2021/07/25 14:58:53;;;;;;;;;;;;;;;;;;5095972;28;1048;-81
2021/07/25 15:01:20;;;;;;;;;;;;;;;;;;5094730;28;1247;-82
2021/07/25 15:06:42;;;;;;;;;;;;;;;;;;5033638;28;1120;-83
2021/07/25 15:12:00;;;;;;;;;;;;;;;;;;5033467;28;1906;-82
2021/07/25 15:14:27;;;;;;;;;;;;;;;;;;5016830;28;1240;-82
2021/07/25 15:17:02;;;;;;;;;;;;;;;;;;5033727;28;1080;-83
2021/07/25 15:19:30;;;;;;;;;;;;;;;;;;5016977;28;1267;-83
2021/07/25 15:21:56;;;;;;;;;;;;;;;;;;5033521;28;830;-82
2021/07/25 15:24:28;;;;;;;;;;;;;;;;;;5033598;28;1105;-82
2021/07/25 15:26:54;;;;;;;;;;;;;;;;;;5033582;28;830;-83
2021/07/25 15:29:30;;;;;;;;;;;;;;;;;;5033517;28;922;-82
2021/07/25 15:31:57;;;;;;;;;;;;;;;;;;5033462;28;1883;-83
2021/07/25 15:34:23;;;;;;;;;;;;;;;;;;5034717;28;933;-82
2021/07/25 15:36:58;;;;;;;;;;;;;;;;;;5037501;28;1111;-82
2021/07/25 15:39:24;;;;;;;;;;;;;;;;;;5036995;28;834;-83
2021/07/25 15:42:09;;;;;;;;;;;;;;;;;;5037189;28;889;-83
2021/07/25 15:44:36;;;;;;;;;;;;;;;;;;5099596;28;778;-83
2021/07/25 15:47:08;;;;;;;;;;;;;;;;;;5098209;28;1151;-79
2021/07/25 15:49:35;;;;;;;;;;;;;;;;;;5098215;28;1309;-81
2021/07/25 15:52:13;;;;;;;;;;;;;;;;;;5097955;28;1932;-80
2021/07/25 15:54:38;;;;;;;;;;;;;;;;;;5093616;28;1205;-81
2021/07/25 15:57:03;;;;;;;;;;;;;;;;;;5099237;28;1083;-80
2021/07/25 16:04:42;;;;;;;;;;;;;;;;;;5099064;28;633;-81
2021/07/25 16:09:51;;;;;;;;;;;;;;;;;;5098581;28;752;-82
2021/07/25 16:12:22;;;;;;;;;;;;;;;;;;5097176;28;1910;-82
2021/07/25 16:14:48;;;;;;;;;;;;;;;;;;5099005;28;913;-83
2021/07/25 16:17:16;;;;;;;;;;;;;;;;;;5098914;28;940;-82
2021/07/25 16:19:41;;;;;;;;;;;;;;;;;;5097939;28;897;-83
2021/07/25 16:27:43;;;;;;;;;;;;;;;;;;5036215;28;1126;-83
2021/07/25 16:30:25;;;;;;;;;;;;;;;;;;5036315;28;942;-83
2021/07/25 16:32:53;;;;;;;;;;;;;;;;;;5036368;28;1942;-83
2021/07/25 16:35:20;;;;;;;;;;;;;;;;;;5036289;28;830;-83
2021/07/25 16:37:46;;;;;;;;;;;;;;;;;;5036069;28;946;-82
2021/07/25 16:40:11;;;;;;;;;;;;;;;;;;5036399;28;1168;-82
2021/07/25 16:42:38;;;;;;;;;;;;;;;;;;5036139;28;815;-82
2021/07/25 16:45:13;;;;;;;;;;;;;;;;;;5036049;28;972;-82
2021/07/25 16:47:40;;;;;;;;;;;;;;;;;;5036025;28;846;-83
2021/07/25 16:50:06;;;;;;;;;;;;;;;;;;5035956;28;966;-83
2021/07/25 16:52:44;;;;;;;;;;;;;;;;;;5019275;28;1874;-82
2021/07/25 16:55:16;;;;;;;;;;;;;;;;;;5012742;28;1314;-83
2021/07/25 16:57:41;;;;;;;;;;;;;;;;;;5035981;28;1076;-83
2021/07/25 17:00:15;;;;;;;;;;;;;;;;;;5035872;28;873;-83
2021/07/25 17:02:40;;;;;;;;;;;;;;;;;;5036250;28;1370;-83
2021/07/25 17:05:25;;;;;;;;;;;;;;;;;;5096699;28;1377;-83
2021/07/25 17:07:50;;;;;;;;;;;;;;;;;;5097894;28;790;-83
2021/07/25 17:10:24;;;;;;;;;;;;;;;;;;5097788;28;902;-82
2021/07/25 17:15:18;;;;;;;;;;;;;;;;;;5097926;28;869;-83
2021/07/25 17:17:44;;;;;;;;;;;;;;;;;;5096393;28;1178;-82
2021/07/25 17:20:11;;;;;;;;;;;;;;;;;;5097534;28;905;-82
2021/07/25 17:22:38;;;;;;;;;;;;;;;;;;5096198;28;1449;-83
2021/07/25 17:25:16;;;;;;;;;;;;;;;;;;5097401;28;913;-83
2021/07/25 17:27:53;;;;;;;;;;;;;;;;;;5097415;28;841;-83
2021/07/25 17:30:26;;;;;;;;;;;;;;;;;;5096210;28;904;-83
2021/07/25 17:32:52;;;;;;;;;;;;;;;;;;5097428;28;1878;-83
2021/07/25 17:35:26;;;;;;;;;;;;;;;;;;5097309;28;944;-80
2021/07/25 17:37:53;;;;;;;;;;;;;;;;;;5097228;28;896;-80
2021/07/25 17:43:28;;;;;;;;;;;;;;;;;;5035045;28;1072;-80
2021/07/25 17:46:05;;;;;;;;;;;;;;;;;;5034841;28;960;-80
2021/07/25 17:48:46;;;;;;;;;;;;;;;;;;5018125;28;1284;-81
2021/07/25 17:51:11;;;;;;;;;;;;;;;;;;5034774;28;916;-80
2021/07/25 17:53:37;;;;;;;;;;;;;;;;;;5034717;28;1878;-80
2021/07/25 17:56:03;;;;;;;;;;;;;;;;;;5030649;28;1038;-80
2021/07/25 17:58:28;;;;;;;;;;;;;;;;;;5034073;28;1024;-79
2021/07/25 18:01:08;;;;;;;;;;;;;;;;;;5017897;28;1310;-79
2021/07/25 18:03:34;;;;;;;;;;;;;;;;;;5034559;28;791;-80
2021/07/25 18:06:08;;;;;;;;;;;;;;;;;;5034433;28;989;-79
2021/07/25 18:11:05;;;;;;;;;;;;;;;;;;5034615;28;819;-79
2021/07/25 18:13:32;;;;;;;;;;;;;;;;;;5034215;28;1903;-80
2021/07/25 18:15:57;;;;;;;;;;;;;;;;;;5034295;28;997;-80
2021/07/25 18:18:40;;;;;;;;;;;;;;;;;;5034292;28;909;-80
2021/07/25 18:21:05;;;;;;;;;;;;;;;;;;5096516;28;884;-80
2021/07/25 18:23:46;;;;;;;;;;;;;;;;;;5096401;28;960;-80
2021/07/25 18:31:47;;;;;;;;;;;;;;;;;;5096211;28;1878;-79
2021/07/25 18:34:26;;;;;;;;;;;;;;;;;;5095128;28;920;-80
2021/07/25 18:39:34;;;;;;;;;;;;;;;;;;5096171;28;669;-80
2021/07/25 18:41:59;;;;;;;;;;;;;;;;;;5095916;28;996;-82
2021/07/25 18:44:35;;;;;;;;;;;;;;;;;;5096068;28;940;-82
2021/07/25 18:47:00;;;;;;;;;;;;;;;;;;5094848;28;1171;-82
2021/07/25 18:49:32;;;;;;;;;;;;;;;;;;5094769;28;1237;-83
2021/07/25 18:54:49;;;;;;;;;;;;;;;;;;5033833;28;990;-82
2021/07/25 18:57:14;;;;;;;;;;;;;;;;;;5033725;28;1114;-82
2021/07/25 18:59:40;;;;;;;;;;;;;;;;;;5033648;28;882;-82
2021/07/25 19:02:07;;;;;;;;;;;;;;;;;;5033776;28;962;-82
2021/07/25 19:04:32;;;;;;;;;;;;;;;;;;5017261;28;942;-83
2021/07/25 19:06:58;;;;;;;;;;;;;;;;;;5033650;28;962;-83
2021/07/25 19:09:25;;;;;;;;;;;;;;;;;;5020439;28;1315;-82
2021/07/25 19:11:51;;;;;;;;;;;;;;;;;;5037775;28;1957;-82
2021/07/25 19:14:29;;;;;;;;;;;;;;;;;;5021101;28;1313;-82
2021/07/25 19:16:55;;;;;;;;;;;;;;;;;;5037871;28;859;-83
2021/07/25 19:19:32;;;;;;;;;;;;;;;;;;5021032;28;1152;-83
2021/07/25 19:21:57;;;;;;;;;;;;;;;;;;5037530;28;900;-82
2021/07/25 19:24:22;;;;;;;;;;;;;;;;;;5037377;28;1036;-82
2021/07/25 19:26:49;;;;;;;;;;;;;;;;;;5020926;28;1222;-82
2021/07/25 19:29:17;;;;;;;;;;;;;;;;;;5037454;28;961;-80
2021/07/25 19:31:51;;;;;;;;;;;;;;;;;;5071637;28;1878;-80
2021/07/25 19:34:29;;;;;;;;;;;;;;;;;;5098380;28;1278;-79
2021/07/25 19:37:00;;;;;;;;;;;;;;;;;;5098332;28;1184;-79
2021/07/25 19:45:19;;;;;;;;;;;;;;;;;;5037221;28;1040;-79
2021/07/25 19:50:28;;;;;;;;;;;;;;;;;;5037032;28;597;-80
2021/07/25 19:52:55;;;;;;;;;;;;;;;;;;5037111;28;1886;-80
2021/07/25 19:58:03;;;;;;;;;;;;;;;;;;5033990;28;1111;-80
2021/07/25 20:00:39;;;;;;;;;;;;;;;;;;5020129;28;1306;-82
2021/07/25 20:03:15;;;;;;;;;;;;;;;;;;5020228;28;1175;-82
2021/07/25 20:05:42;;;;;;;;;;;;;;;;;;5037108;28;861;-82
2021/07/25 20:10:59;;;;;;;;;;;;;;;;;;5036944;28;589;-81